createdAt,value
2023-02-05T00:01:54.782Z,103652.22
2023-02-05T00:04:21.730Z,103644.47
2023-02-05T00:06:49.233Z,103644.28
2023-02-05T00:09:16.244Z,103634.06
2023-02-05T00:11:43.253Z,103630.13
2023-02-05T00:14:10.961Z,103632.88
2023-02-05T00:16:38.018Z,103638.81
2023-02-05T00:19:05.150Z,103633.16
2023-02-05T00:21:32.133Z,103635.28
2023-02-05T00:23:59.146Z,103623.44
2023-02-05T00:26:26.200Z,103617.63
2023-02-05T00:28:54.388Z,103617.34
2023-02-05T00:31:23.925Z,103602.50
2023-02-05T00:33:52.424Z,103607.91
2023-02-05T00:36:21.576Z,103600.28
2023-02-05T00:38:49.565Z,103594.09
2023-02-05T00:41:17.536Z,103586.50
2023-02-05T00:43:44.986Z,103583.78
2023-02-05T00:46:13.363Z,103587.91
2023-02-05T00:48:43.000Z,103583.97
2023-02-05T00:51:11.536Z,103581.97
2023-02-05T00:53:38.675Z,103588.97
2023-02-05T00:56:05.996Z,103601.03
2023-02-05T00:58:34.165Z,103600.34
2023-02-05T01:01:01.192Z,103598.97
2023-02-05T01:03:28.322Z,103598.13
2023-02-05T01:05:55.298Z,103597.66
2023-02-05T01:08:22.550Z,103598.41
2023-02-05T01:10:51.378Z,103595.78
2023-02-05T01:13:19.188Z,103596.75
2023-02-05T01:15:46.758Z,103584.84
2023-02-05T01:18:14.315Z,103592.69
2023-02-05T01:20:42.773Z,103593.34
2023-02-05T01:23:11.191Z,103606.50
2023-02-05T01:25:38.726Z,103606.63
2023-02-05T01:28:06.988Z,103605.16
2023-02-05T01:30:34.954Z,103616.78
2023-02-05T01:33:02.973Z,103612.56
2023-02-05T01:35:30.160Z,103608.63
2023-02-05T01:37:57.239Z,103624.38
2023-02-05T01:40:24.527Z,103615.03
2023-02-05T01:42:51.521Z,103613.13
2023-02-05T01:45:25.158Z,103601.88
2023-02-05T01:47:56.207Z,103604.50
2023-02-05T01:50:47.027Z,103610.03
2023-02-05T01:53:24.128Z,103617.22
2023-02-05T01:56:10.419Z,103610.16
2023-02-05T01:58:46.362Z,103613.88
2023-02-05T02:01:13.566Z,103616.34
2023-02-05T02:03:41.355Z,103620.34
2023-02-05T02:06:08.720Z,103613.88
2023-02-05T02:08:35.839Z,103612.94
2023-02-05T02:11:06.233Z,103619.38
2023-02-05T02:13:36.335Z,103597.72
2023-02-05T02:16:05.220Z,103597.94
2023-02-05T02:18:35.063Z,103606.53
2023-02-05T02:21:39.630Z,103602.75
2023-02-05T02:25:05.271Z,103616.16
2023-02-05T02:27:45.244Z,103623.66
2023-02-05T02:31:04.025Z,103620.84
2023-02-05T02:33:36.906Z,103610.75
2023-02-05T02:36:17.806Z,103613.22
2023-02-05T02:38:57.880Z,103607.94
2023-02-05T02:42:25.956Z,103611.56
2023-02-05T02:45:08.760Z,103609.28
2023-02-05T02:47:42.532Z,103609.13
2023-02-05T02:50:34.872Z,103596.34
2023-02-05T02:53:12.933Z,103604.47
2023-02-05T02:55:43.869Z,103588.28
2023-02-05T02:58:21.982Z,103568.47
2023-02-05T03:00:50.851Z,103571.63
2023-02-05T03:03:21.567Z,103569.97
2023-02-05T03:05:50.340Z,103565.69
2023-02-05T03:08:28.510Z,103592.09
2023-02-05T03:11:06.841Z,103584.44
2023-02-05T03:13:34.478Z,103581.59
2023-02-05T03:16:02.001Z,103578.47
2023-02-05T03:18:30.214Z,103575.69
2023-02-05T03:21:02.519Z,103577.50
2023-02-05T03:23:30.365Z,103571.91
2023-02-05T03:25:57.361Z,103577.97
2023-02-05T03:28:24.599Z,103564.03
2023-02-05T03:30:51.865Z,103567.97
2023-02-05T03:33:38.566Z,103575.13
2023-02-05T03:36:17.659Z,103574.72
2023-02-05T03:39:21.903Z,103568.31
2023-02-05T03:42:08.944Z,103569.66
2023-02-05T03:45:08.459Z,103554.94
2023-02-05T03:48:14.740Z,103561.63
2023-02-05T03:50:52.529Z,103552.13
2023-02-05T03:54:08.181Z,103556.19
2023-02-05T03:57:00.776Z,103556.34
2023-02-05T03:59:30.257Z,103555.03
2023-02-05T04:01:57.760Z,103559.56
2023-02-05T04:04:25.934Z,103561.19
2023-02-05T04:06:53.905Z,103565.91
2023-02-05T04:09:20.932Z,103565.66
2023-02-05T04:11:47.887Z,103571.75
2023-02-05T04:14:15.359Z,103590.28
2023-02-05T04:16:42.425Z,103598.28
2023-02-05T04:19:09.415Z,103594.50
2023-02-05T04:21:36.341Z,103596.72
2023-02-05T04:24:03.461Z,103598.00
2023-02-05T04:26:30.673Z,103601.41
2023-02-05T04:28:57.716Z,103601.97
2023-02-05T04:31:24.814Z,103612.25
2023-02-05T04:33:51.795Z,103612.59
2023-02-05T04:36:19.028Z,103608.00
2023-02-05T04:38:46.060Z,103613.75
2023-02-05T04:41:13.154Z,103620.94
2023-02-05T04:43:40.204Z,103617.44
2023-02-05T04:46:11.232Z,103622.56
2023-02-05T04:48:39.027Z,103621.38
2023-02-05T04:51:11.764Z,103623.84
2023-02-05T04:53:40.370Z,103625.72
2023-02-05T04:56:16.591Z,103626.63
2023-02-05T04:58:44.814Z,103625.94
2023-02-05T05:01:18.928Z,103632.59
2023-02-05T05:03:46.439Z,103634.69
2023-02-05T05:06:14.898Z,103632.81
2023-02-05T05:08:42.349Z,103635.47
2023-02-05T05:11:15.541Z,103635.84
2023-02-05T05:13:42.941Z,103638.25
2023-02-05T05:16:11.789Z,103635.31
2023-02-05T05:18:39.949Z,103636.22
2023-02-05T05:21:07.999Z,103640.00
2023-02-05T05:23:38.509Z,103651.03
2023-02-05T05:26:08.201Z,103644.13
2023-02-05T05:28:35.931Z,103636.44
2023-02-05T05:31:09.166Z,103647.97
2023-02-05T05:33:36.700Z,103643.19
2023-02-05T05:36:04.694Z,103639.19
2023-02-05T05:38:31.854Z,103653.66
2023-02-05T05:41:17.682Z,103656.34
2023-02-05T05:43:47.662Z,103644.38
2023-02-05T05:46:25.171Z,103645.91
2023-02-05T05:48:55.225Z,103649.41
2023-02-05T05:51:24.192Z,103655.75
2023-02-05T05:53:51.578Z,103660.16
2023-02-05T05:56:19.070Z,103654.78
2023-02-05T05:58:47.355Z,103663.91
2023-02-05T06:01:17.170Z,103661.22
2023-02-05T06:03:44.152Z,103663.59
2023-02-05T06:06:12.773Z,103665.00
2023-02-05T06:08:39.750Z,103665.47
2023-02-05T06:11:06.850Z,103664.53
2023-02-05T06:13:34.890Z,103675.66
2023-02-05T06:16:02.408Z,103678.50
2023-02-05T06:18:30.388Z,103679.63
2023-02-05T06:20:57.396Z,103680.59
2023-02-05T06:23:24.591Z,103674.84
2023-02-05T06:25:51.672Z,103678.53
2023-02-05T06:28:19.465Z,103687.94
2023-02-05T06:30:46.478Z,103688.22
2023-02-05T06:33:13.597Z,103685.31
2023-02-05T06:35:44.682Z,103694.91
2023-02-05T06:38:11.628Z,103699.94
2023-02-05T06:40:38.632Z,103698.22
2023-02-05T06:43:06.205Z,103717.31
2023-02-05T06:45:33.630Z,103723.97
2023-02-05T06:48:01.916Z,103731.97
2023-02-05T06:50:28.925Z,103729.75
2023-02-05T06:52:56.009Z,103727.53
2023-02-05T06:55:23.148Z,103750.72
2023-02-05T06:57:50.233Z,103749.34
2023-02-05T07:00:17.888Z,103748.63
2023-02-05T07:02:44.998Z,103751.56
2023-02-05T07:05:12.170Z,103766.81
2023-02-05T07:07:39.816Z,103775.56
2023-02-05T07:10:07.432Z,103781.94
2023-02-05T07:12:34.430Z,103787.81
2023-02-05T07:15:01.361Z,103798.59
2023-02-05T07:17:28.412Z,103796.69
2023-02-05T07:19:55.511Z,103815.13
2023-02-05T07:22:22.565Z,103805.56
2023-02-05T07:24:49.545Z,103804.50
2023-02-05T07:27:16.517Z,103800.41
2023-02-05T07:29:43.457Z,103833.19
2023-02-05T07:32:10.612Z,103842.94
2023-02-05T07:34:37.677Z,103829.88
2023-02-05T07:37:04.943Z,103843.63
2023-02-05T07:39:33.474Z,103852.91
2023-02-05T07:42:01.074Z,103858.50
2023-02-05T07:44:28.105Z,103873.25
2023-02-05T07:46:55.154Z,103866.31
2023-02-05T07:49:22.356Z,103866.34
2023-02-05T07:51:49.326Z,103876.47
2023-02-05T07:54:16.472Z,103874.31
2023-02-05T07:56:43.440Z,103880.16
2023-02-05T07:59:10.776Z,103868.06
2023-02-05T08:01:37.765Z,103891.78
2023-02-05T08:04:04.901Z,103887.56
2023-02-05T08:06:33.407Z,103894.72
2023-02-05T08:09:00.374Z,103899.84
2023-02-05T08:11:27.333Z,103893.28
2023-02-05T08:13:54.339Z,103890.81
2023-02-05T08:16:22.024Z,103895.47
2023-02-05T08:18:50.907Z,103898.09
2023-02-05T08:21:19.495Z,103907.72
2023-02-05T08:23:46.520Z,103901.34
2023-02-05T08:26:15.032Z,103893.81
2023-02-05T08:28:43.253Z,103897.28
2023-02-05T08:31:17.219Z,103890.63
2023-02-05T08:33:45.811Z,103900.75
2023-02-05T08:36:13.107Z,103909.56
2023-02-05T08:38:40.073Z,103906.66
2023-02-05T08:41:12.552Z,103915.06
2023-02-05T08:43:46.670Z,103907.28
2023-02-05T08:46:18.713Z,103906.88
2023-02-05T08:48:47.331Z,103905.31
2023-02-05T08:51:15.739Z,103917.91
2023-02-05T08:53:42.798Z,103911.25
2023-02-05T08:56:10.931Z,103920.25
2023-02-05T08:58:39.891Z,103910.72
2023-02-05T09:01:15.109Z,103909.22
2023-02-05T09:03:42.249Z,103909.88
2023-02-05T09:06:14.475Z,103914.19
2023-02-05T09:08:41.518Z,103914.03
2023-02-05T09:11:08.934Z,103931.00
2023-02-05T09:13:36.723Z,103923.72
2023-02-05T09:16:04.043Z,103926.16
2023-02-05T09:18:31.083Z,103933.66
2023-02-05T09:20:58.298Z,103918.81
2023-02-05T09:23:25.521Z,103923.06
2023-02-05T09:25:53.944Z,103916.09
2023-02-05T09:28:21.476Z,103921.34
2023-02-05T09:30:48.851Z,103919.75
2023-02-05T09:33:15.854Z,103943.31
2023-02-05T09:35:42.841Z,103964.94
2023-02-05T09:38:14.908Z,103969.56
2023-02-05T09:40:59.227Z,103967.00
2023-02-05T09:43:55.634Z,103967.59
2023-02-05T09:46:52.813Z,103952.91
2023-02-05T09:49:36.976Z,103945.19
2023-02-05T09:52:34.672Z,103961.41
2023-02-05T09:55:33.066Z,103956.88
2023-02-05T09:58:07.181Z,103933.66
2023-02-05T10:00:49.481Z,103926.19
2023-02-05T10:03:42.374Z,103911.59
2023-02-05T10:06:36.636Z,103916.38
2023-02-05T10:09:45.442Z,103908.13
2023-02-05T10:12:32.659Z,103912.50
2023-02-05T10:15:17.210Z,103928.75
2023-02-05T10:18:05.224Z,103939.09
2023-02-05T10:20:56.368Z,103909.31
2023-02-05T10:23:47.571Z,103919.66
2023-02-05T10:26:18.183Z,103945.06
2023-02-05T10:29:25.975Z,103924.84
2023-02-05T10:32:20.365Z,103943.50
2023-02-05T10:35:04.575Z,103958.59
2023-02-05T10:37:40.260Z,103941.13
2023-02-05T10:40:15.461Z,103909.00
2023-02-05T10:43:23.255Z,103920.47
2023-02-05T10:45:51.555Z,103926.91
2023-02-05T10:48:57.659Z,103935.28
2023-02-05T10:51:45.679Z,103957.72
2023-02-05T10:54:33.851Z,103940.88
2023-02-05T10:57:01.807Z,103938.34
2023-02-05T10:59:36.164Z,103948.88
2023-02-05T11:02:08.770Z,103942.16
2023-02-05T11:04:45.366Z,103936.28
2023-02-05T11:07:22.223Z,103927.78
2023-02-05T11:09:49.236Z,103944.31
2023-02-05T11:12:30.670Z,103949.72
2023-02-05T11:15:02.841Z,103947.72
2023-02-05T11:17:37.136Z,103952.13
2023-02-05T11:20:26.230Z,103949.75
2023-02-05T11:23:14.741Z,103942.13
2023-02-05T11:25:59.050Z,103933.28
2023-02-05T11:28:37.567Z,103927.84
2023-02-05T11:31:34.774Z,103915.59
2023-02-05T11:34:08.096Z,103938.94
2023-02-05T11:36:38.474Z,103925.50
2023-02-05T11:39:07.202Z,103909.94
2023-02-05T11:41:48.712Z,103909.91
2023-02-05T11:44:30.407Z,103919.94
2023-02-05T11:47:00.426Z,103910.72
2023-02-05T11:49:39.470Z,103911.63
2023-02-05T11:52:13.282Z,103898.28
2023-02-05T11:54:46.038Z,103898.50
2023-02-05T11:57:21.617Z,103904.59
2023-02-05T12:00:19.967Z,103909.94
2023-02-05T12:02:54.029Z,103914.84
2023-02-05T12:05:31.674Z,103925.91
2023-02-05T12:08:21.476Z,103924.09
2023-02-05T12:11:04.442Z,103891.97
2023-02-05T12:13:54.316Z,103918.06
2023-02-05T12:16:52.745Z,103919.78
2023-02-05T12:19:36.162Z,103921.00
2023-02-05T12:22:39.609Z,103913.63
2023-02-05T12:25:29.912Z,103917.00
2023-02-05T12:28:18.024Z,103908.69
2023-02-05T12:31:20.556Z,103911.84
2023-02-05T12:34:05.617Z,103897.63
2023-02-05T12:36:45.322Z,103898.16
2023-02-05T12:39:51.088Z,103913.59
2023-02-05T12:42:50.399Z,103906.28
2023-02-05T12:45:38.869Z,103901.78
2023-02-05T12:48:23.702Z,103910.88
2023-02-05T12:51:22.318Z,103920.59
2023-02-05T12:54:01.253Z,103927.91
2023-02-05T12:56:56.837Z,103921.69
2023-02-05T12:59:36.041Z,103929.22
2023-02-05T13:02:29.865Z,103933.88
2023-02-05T13:05:22.281Z,103918.97
2023-02-05T13:07:59.892Z,103927.00
2023-02-05T13:11:10.160Z,103928.31
2023-02-05T13:13:48.201Z,103913.66
2023-02-05T13:16:18.358Z,103915.66
2023-02-05T13:18:58.044Z,103899.16
2023-02-05T13:21:43.933Z,103912.88
2023-02-05T13:24:38.097Z,103916.41
2023-02-05T13:27:36.418Z,103926.72
2023-02-05T13:30:05.595Z,103942.03
2023-02-05T13:32:34.491Z,103936.84
2023-02-05T13:35:01.595Z,103928.19
2023-02-05T13:37:37.018Z,103913.59
2023-02-05T13:40:31.866Z,103914.59
2023-02-05T13:43:13.232Z,103928.50
2023-02-05T13:46:24.915Z,103928.16
2023-02-05T13:49:10.403Z,103945.06
2023-02-05T13:52:52.743Z,103937.13
2023-02-05T13:55:39.840Z,103940.44
2023-02-05T13:58:26.119Z,103938.59
2023-02-05T14:01:07.480Z,103949.75
2023-02-05T14:03:54.646Z,103944.59
2023-02-05T14:06:38.083Z,103935.31
2023-02-05T14:09:09.798Z,103931.81
2023-02-05T14:11:58.184Z,103938.38
2023-02-05T14:14:38.099Z,103940.53
2023-02-05T14:17:27.958Z,103929.44
2023-02-05T14:19:58.883Z,103932.19
2023-02-05T14:22:42.396Z,103935.03
2023-02-05T14:25:41.618Z,103936.13
2023-02-05T14:28:20.059Z,103925.63
2023-02-05T14:30:59.547Z,103921.81
2023-02-05T14:33:45.789Z,103926.03
2023-02-05T14:36:18.377Z,103925.78
2023-02-05T14:39:00.974Z,103921.03
2023-02-05T14:41:38.906Z,103926.44
2023-02-05T14:44:12.041Z,103919.00
2023-02-05T14:46:44.485Z,103928.97
2023-02-05T14:49:34.336Z,103913.91
2023-02-05T14:52:31.336Z,103901.69
2023-02-05T14:55:43.383Z,103912.84
2023-02-05T14:58:32.627Z,103914.78
2023-02-05T15:01:33.766Z,103907.63
2023-02-05T15:04:04.077Z,103922.28
2023-02-05T15:06:40.045Z,103922.47
2023-02-05T15:09:21.164Z,103932.63
2023-02-05T15:12:21.205Z,103913.16
2023-02-05T15:14:55.544Z,103920.06
2023-02-05T15:17:35.343Z,103924.34
2023-02-05T15:20:19.183Z,103939.97
2023-02-05T15:23:01.348Z,103923.72
2023-02-05T15:26:01.629Z,103924.59
2023-02-05T15:28:46.594Z,103940.97
2023-02-05T15:31:49.044Z,103936.28
2023-02-05T15:34:34.033Z,103948.03
2023-02-05T15:37:22.752Z,103954.63
2023-02-05T15:40:01.317Z,103946.25
2023-02-05T15:42:38.930Z,103946.47
2023-02-05T15:45:28.217Z,103963.03
2023-02-05T15:48:03.263Z,103956.00
2023-02-05T15:50:31.658Z,103970.53
2023-02-05T15:52:59.742Z,103943.09
2023-02-05T15:55:29.116Z,103948.19
2023-02-05T15:58:04.615Z,103949.44
2023-02-05T16:00:34.115Z,103954.47
2023-02-05T16:03:03.701Z,103967.47
2023-02-05T16:05:32.194Z,103969.84
2023-02-05T16:08:02.069Z,103969.91
2023-02-05T16:10:33.772Z,103973.69
2023-02-05T16:13:05.529Z,103992.16
2023-02-05T16:15:36.978Z,103980.59
2023-02-05T16:18:12.404Z,103986.38
2023-02-05T16:20:51.140Z,103989.50
2023-02-05T16:23:28.207Z,103971.94
2023-02-05T16:26:09.804Z,103993.00
2023-02-05T16:29:25.662Z,104005.75
2023-02-05T16:32:06.174Z,103989.34
2023-02-05T16:34:36.620Z,103983.16
2023-02-05T16:37:10.108Z,104006.41
2023-02-05T16:39:46.812Z,104001.63
2023-02-05T16:42:29.450Z,104013.16
2023-02-05T16:45:08.412Z,104020.47
2023-02-05T16:47:36.690Z,104021.38
2023-02-05T16:50:43.163Z,104011.94
2023-02-05T16:53:27.015Z,104021.16
2023-02-05T16:55:59.106Z,104023.59
2023-02-05T16:58:37.203Z,104027.63
2023-02-05T17:01:04.918Z,104028.47
2023-02-05T17:03:38.446Z,104024.47
2023-02-05T17:06:14.787Z,104025.03
2023-02-05T17:08:45.436Z,104030.75
2023-02-05T17:11:38.212Z,104031.09
2023-02-05T17:14:29.970Z,104035.84
2023-02-05T17:17:15.827Z,104028.06
2023-02-05T17:19:43.164Z,104026.69
2023-02-05T17:22:15.926Z,104033.31
2023-02-05T17:24:45.552Z,104049.22
2023-02-05T17:27:27.710Z,104046.44
2023-02-05T17:29:55.455Z,104054.97
2023-02-05T17:32:22.785Z,104059.66
2023-02-05T17:34:49.915Z,104062.38
2023-02-05T17:37:17.209Z,104065.28
2023-02-05T17:39:44.452Z,104064.59
2023-02-05T17:42:24.202Z,104063.88
2023-02-05T17:44:53.220Z,104059.00
2023-02-05T17:47:20.340Z,104071.03
2023-02-05T17:49:47.787Z,104072.78
2023-02-05T17:52:17.365Z,104076.81
2023-02-05T17:54:48.225Z,104080.66
2023-02-05T17:57:21.282Z,104086.03
2023-02-05T17:59:49.550Z,104079.47
2023-02-05T18:02:17.359Z,104074.63
2023-02-05T18:04:47.721Z,104071.28
2023-02-05T18:07:33.018Z,104069.38
2023-02-05T18:10:00.038Z,104070.38
2023-02-05T18:12:27.113Z,104083.41
2023-02-05T18:14:55.085Z,104085.63
2023-02-05T18:17:22.048Z,104081.91
2023-02-05T18:19:48.983Z,104095.25
2023-02-05T18:22:16.445Z,104088.00
2023-02-05T18:24:43.413Z,104105.00
2023-02-05T18:27:12.102Z,104095.75
2023-02-05T18:29:39.998Z,104104.97
2023-02-05T18:32:07.906Z,104104.13
2023-02-05T18:34:34.897Z,104108.84
2023-02-05T18:37:01.875Z,104099.13
2023-02-05T18:39:29.609Z,104092.38
2023-02-05T18:41:57.908Z,104092.00
2023-02-05T18:44:26.120Z,104090.63
2023-02-05T18:46:54.128Z,104089.41
2023-02-05T18:49:21.438Z,104087.56
2023-02-05T18:51:48.424Z,104088.22
2023-02-05T18:54:15.464Z,104092.88
2023-02-05T18:56:42.550Z,104097.94
2023-02-05T18:59:15.335Z,104098.28
2023-02-05T19:01:43.064Z,104084.13
2023-02-05T19:04:13.838Z,104098.13
2023-02-05T19:06:45.579Z,104107.94
2023-02-05T19:09:12.559Z,104120.00
2023-02-05T19:11:44.283Z,104118.34
2023-02-05T19:14:14.320Z,104131.66
2023-02-05T19:16:42.494Z,104140.66
2023-02-05T19:19:13.219Z,104144.25
2023-02-05T19:21:41.107Z,104143.59
2023-02-05T19:24:09.836Z,104139.50
2023-02-05T19:26:39.052Z,104141.31
2023-02-05T19:29:13.266Z,104133.66
2023-02-05T19:31:41.328Z,104154.19
2023-02-05T19:34:08.395Z,104160.00
2023-02-05T19:36:35.973Z,104158.63
2023-02-05T19:39:06.819Z,104162.38
2023-02-05T19:41:36.344Z,104165.78
2023-02-05T19:44:07.363Z,104158.16
2023-02-05T19:46:39.101Z,104148.19
2023-02-05T19:49:12.596Z,104151.53
2023-02-05T19:51:39.595Z,104155.06
2023-02-05T19:54:07.012Z,104150.22
2023-02-05T19:56:37.837Z,104149.06
2023-02-05T19:59:08.919Z,104151.66
2023-02-05T20:01:38.612Z,104150.22
2023-02-05T20:04:17.430Z,104140.84
2023-02-05T20:06:46.554Z,104142.59
2023-02-05T20:09:16.092Z,104121.00
2023-02-05T20:11:47.552Z,104127.78
2023-02-05T20:14:15.718Z,104140.72
2023-02-05T20:16:45.222Z,104144.09
2023-02-05T20:19:14.683Z,104142.19
2023-02-05T20:21:42.619Z,104151.59
2023-02-05T20:24:10.074Z,104153.22
2023-02-05T20:26:38.211Z,104144.53
2023-02-05T20:29:24.554Z,104141.25
2023-02-05T20:31:53.469Z,104143.63
2023-02-05T20:34:26.607Z,104140.91
2023-02-05T20:36:56.059Z,104141.84
2023-02-05T20:39:28.750Z,104142.47
2023-02-05T20:41:58.448Z,104142.19
2023-02-05T20:44:31.946Z,104145.22
2023-02-05T20:46:58.893Z,104138.69
2023-02-05T20:49:25.938Z,104150.28
2023-02-05T20:51:54.064Z,104145.31
2023-02-05T20:54:22.512Z,104147.88
2023-02-05T20:56:59.026Z,104149.84
2023-02-05T20:59:32.531Z,104147.75
2023-02-05T21:02:00.424Z,104148.34
2023-02-05T21:04:27.432Z,104141.81
2023-02-05T21:06:54.553Z,104164.78
2023-02-05T21:09:22.247Z,104150.47
2023-02-05T21:11:51.054Z,104154.53
2023-02-05T21:14:18.088Z,104146.44
2023-02-05T21:16:45.055Z,104153.56
2023-02-05T21:19:12.401Z,104154.88
2023-02-05T21:21:40.622Z,104154.53
2023-02-05T21:24:13.356Z,104144.91
2023-02-05T21:26:46.835Z,104154.03
2023-02-05T21:29:18.306Z,104144.63
2023-02-05T21:31:50.388Z,104148.84
2023-02-05T21:34:25.014Z,104141.34
2023-02-05T21:36:54.163Z,104139.63
2023-02-05T21:39:21.983Z,104144.59
2023-02-05T21:41:53.564Z,104145.69
2023-02-05T21:44:20.906Z,104126.16
2023-02-05T21:46:47.873Z,104123.94
2023-02-05T21:49:14.916Z,104114.47
2023-02-05T21:51:42.464Z,104128.22
2023-02-05T21:54:11.134Z,104130.25
2023-02-05T21:56:41.592Z,104138.88
2023-02-05T21:59:12.078Z,104147.78
2023-02-05T22:01:39.614Z,104144.50
2023-02-05T22:04:14.795Z,104143.41
2023-02-05T22:06:42.645Z,104135.75
2023-02-05T22:09:12.897Z,104130.19
2023-02-05T22:11:40.613Z,104138.47
2023-02-05T22:14:08.939Z,104141.34
2023-02-05T22:16:37.048Z,104148.28
2023-02-05T22:19:05.046Z,104134.94
2023-02-05T22:21:36.015Z,104136.13
2023-02-05T22:24:04.566Z,104129.31
2023-02-05T22:26:37.864Z,104125.31
2023-02-05T22:29:08.783Z,104123.03
2023-02-05T22:31:36.587Z,104128.03
2023-02-05T22:34:04.829Z,104117.88
2023-02-05T22:36:34.292Z,104130.72
2023-02-05T22:39:01.941Z,104138.28
2023-02-05T22:41:36.322Z,104137.81
2023-02-05T22:44:05.403Z,104141.16
2023-02-05T22:46:35.807Z,104143.78
2023-02-05T22:49:03.960Z,104135.03
2023-02-05T22:51:40.214Z,104133.44
2023-02-05T22:54:11.240Z,104129.88
2023-02-05T22:56:38.387Z,104140.78
2023-02-05T22:59:06.336Z,104139.19
2023-02-05T23:01:35.998Z,104139.63
2023-02-05T23:04:05.517Z,104141.44
2023-02-05T23:06:41.212Z,104131.81
2023-02-05T23:09:15.242Z,104138.28
2023-02-05T23:11:44.152Z,104133.75
2023-02-05T23:14:13.654Z,104132.16
2023-02-05T23:16:43.615Z,104148.97
2023-02-05T23:19:16.072Z,104146.72
2023-02-05T23:21:43.376Z,104152.69
2023-02-05T23:24:10.897Z,104161.25
2023-02-05T23:26:42.725Z,104154.19
2023-02-05T23:29:12.044Z,104159.88
2023-02-05T23:31:39.251Z,104160.91
2023-02-05T23:34:06.782Z,104160.66
2023-02-05T23:36:34.231Z,104162.06
2023-02-05T23:39:01.363Z,104158.81
2023-02-05T23:41:37.423Z,104160.34
2023-02-05T23:44:18.737Z,104158.88
2023-02-05T23:46:48.312Z,104163.22
2023-02-05T23:49:16.646Z,104158.44
2023-02-05T23:51:43.858Z,104163.09
2023-02-05T23:54:12.340Z,104176.47
2023-02-05T23:56:40.345Z,104175.31
2023-02-05T23:59:08.938Z,104167.41
